Time;durP1;ratioP1;P1;durP2;ratioP2;P2;SDS_P1;SDS_P2;PMS_P1;PMS_P2;Temp;Humidity;BMP_temperature;BMP_pressure;BME280_temperature;BME280_humidity;BME280_pressure;Samples;Min_cycle;Max_cycle;Signal;HPM_P1;HPM_P2
2022/02/07 00:06:03;;;;;;;21.10;2.90;;;6.20;99.90;;;;;;4990624;28;40349;-76
2022/02/07 00:08:29;;;;;;;19.30;3.20;;;6.20;99.90;;;;;;4987407;28;39291;-77
2022/02/07 00:10:55;;;;;;;20.93;3.60;;;6.20;99.90;;;;;;4989486;28;38792;-78
2022/02/07 00:13:21;;;;;;;19.03;2.70;;;6.30;99.90;;;;;;4997024;28;37038;-77
2022/02/07 00:15:47;;;;;;;16.17;2.90;;;6.40;99.90;;;;;;4988728;28;38891;-77
2022/02/07 00:18:14;;;;;;;24.00;2.70;;;6.40;99.90;;;;;;4977612;28;39390;-81
2022/02/07 00:20:40;;;;;;;26.50;3.60;;;6.50;99.90;;;;;;4981170;28;37003;-80
2022/02/07 00:23:08;;;;;;;15.43;2.90;;;6.50;99.90;;;;;;4990670;28;38366;-79
2022/02/07 00:25:34;;;;;;;16.13;2.33;;;6.50;99.90;;;;;;4986965;28;37916;-78
2022/02/07 00:28:01;;;;;;;19.97;3.17;;;6.50;99.90;;;;;;4993652;28;38700;-80
2022/02/07 00:30:27;;;;;;;22.13;2.97;;;6.40;99.90;;;;;;4982602;28;46689;-79
2022/02/07 00:32:53;;;;;;;23.23;3.37;;;6.40;99.90;;;;;;4986749;28;37335;-79
2022/02/07 00:35:23;;;;;;;20.83;3.53;;;6.40;99.90;;;;;;4981769;28;37809;-79
2022/02/07 00:37:54;;;;;;;25.17;3.63;;;6.30;99.90;;;;;;4986133;28;38588;-80
2022/02/07 00:43:13;;;;;;;26.67;3.87;;;6.40;99.90;;;;;;5002893;28;37292;-79
2022/02/07 00:45:51;;;;;;;20.83;2.63;;;6.40;99.90;;;;;;4986259;28;47535;-80
2022/02/07 00:48:22;;;;;;;27.60;3.13;;;6.40;99.90;;;;;;5002914;28;38540;-79
2022/02/07 00:50:49;;;;;;;25.17;4.17;;;6.50;99.90;;;;;;5009065;28;38281;-80
2022/02/07 00:53:15;;;;;;;15.07;3.57;;;6.40;99.90;;;;;;4991463;28;34446;-80
2022/02/07 00:55:41;;;;;;;19.40;3.00;;;6.30;99.90;;;;;;4984963;28;37876;-80
2022/02/07 00:58:08;;;;;;;26.13;3.40;;;6.30;99.90;;;;;;4986835;28;36901;-79
2022/02/07 01:00:34;;;;;;;18.10;2.80;;;6.30;99.90;;;;;;5001161;28;38468;-77
2022/02/07 01:03:00;;;;;;;27.00;3.40;;;6.30;99.90;;;;;;5010391;28;35971;-79
2022/02/07 01:05:27;;;;;;;22.57;3.73;;;6.40;99.90;;;;;;4999437;28;47657;-78
2022/02/07 01:07:54;;;;;;;30.20;4.00;;;6.40;99.90;;;;;;5000832;28;38502;-78
2022/02/07 01:10:27;;;;;;;21.90;3.33;;;6.40;99.90;;;;;;4987196;28;39123;-78
2022/02/07 01:56:32;;;;;;;26.97;3.80;;;5.90;99.90;;;;;;4949723;28;49081;-79
2022/02/07 01:58:58;;;;;;;29.03;4.43;;;5.80;99.90;;;;;;4989954;28;39738;-78
2022/02/07 02:01:24;;;;;;;24.60;4.70;;;5.70;99.90;;;;;;4980053;28;37299;-77
2022/02/07 02:03:50;;;;;;;24.83;3.63;;;5.70;99.90;;;;;;4982031;28;38060;-78
2022/02/07 02:06:17;;;;;;;18.30;3.97;;;5.80;99.90;;;;;;4980487;28;38446;-78
2022/02/07 02:08:43;;;;;;;14.73;3.10;;;6.00;99.90;;;;;;4988093;28;37881;-79
2022/02/07 02:11:09;;;;;;;18.87;3.80;;;6.10;99.90;;;;;;4983450;28;39327;-78
2022/02/07 02:14:14;;;;;;;22.27;3.67;;;6.20;99.90;;;;;;4986298;28;38052;-78
2022/02/07 02:16:32;;;;;;;21.43;3.40;;;6.30;99.90;;;;;;4983286;28;37081;-80
2022/02/07 02:22:51;;;;;;;23.90;3.30;;;6.40;99.90;;;;;;4989424;28;49497;-81
2022/02/07 02:35:54;;;;;;;22.53;3.43;;;5.90;99.90;;;;;;4983726;28;38844;-77
2022/02/07 02:38:27;;;;;;;25.40;3.73;;;5.90;99.90;;;;;;4984375;28;37204;-78
2022/02/07 02:46:27;;;;;;;16.83;3.10;;;6.00;99.90;;;;;;4981990;28;38791;-79
2022/02/07 02:49:02;;;;;;;27.57;3.90;;;6.10;99.90;;;;;;4963738;28;38621;-77
2022/02/07 02:51:29;;;;;;;35.53;4.30;;;6.00;99.90;;;;;;4958110;28;47109;-78
2022/02/07 02:53:55;;;;;;;22.57;3.33;;;6.10;99.90;;;;;;4980827;28;37854;-78
2022/02/07 02:56:22;;;;;;;23.97;3.50;;;6.10;99.90;;;;;;4980072;28;38653;-77
2022/02/07 02:58:49;;;;;;;29.43;3.97;;;6.10;99.90;;;;;;4976942;28;37528;-80
2022/02/07 03:01:15;;;;;;;30.37;3.80;;;6.30;99.90;;;;;;4978521;28;39685;-78
2022/02/07 03:03:41;;;;;;;21.47;3.30;;;6.40;99.90;;;;;;4960081;28;39122;-78
2022/02/07 03:06:08;;;;;;;36.07;4.43;;;6.40;99.90;;;;;;4983353;28;37738;-78
2022/02/07 03:08:34;;;;;;;22.83;4.00;;;6.40;99.90;;;;;;4964775;28;38063;-79
2022/02/07 03:11:08;;;;;;;25.00;4.03;;;6.40;99.90;;;;;;4979168;28;38726;-80
2022/02/07 03:13:58;;;;;;;21.07;2.67;;;6.50;99.90;;;;;;4965702;28;47220;-80
2022/02/07 03:16:38;;;;;;;22.27;5.10;;;6.50;99.90;;;;;;4984429;28;37527;-81
2022/02/07 03:19:12;;;;;;;21.10;3.23;;;6.60;99.90;;;;;;4976971;28;38056;-80
2022/02/07 03:21:40;;;;;;;16.03;2.40;;;6.60;99.90;;;;;;4980007;28;39445;-80
2022/02/07 03:24:08;;;;;;;12.93;2.20;;;6.60;99.90;;;;;;4962475;28;39759;-80
2022/02/07 03:26:42;;;;;;;21.50;2.80;;;6.70;99.90;;;;;;4969912;28;38866;-81
2022/02/07 03:29:10;;;;;;;13.87;2.23;;;6.70;99.90;;;;;;4958269;28;37251;-79
2022/02/07 03:31:36;;;;;;;18.57;2.87;;;6.70;99.90;;;;;;4955772;28;39670;-81
2022/02/07 03:34:03;;;;;;;17.50;2.77;;;6.70;99.90;;;;;;4981007;28;38875;-77
2022/02/07 03:36:32;;;;;;;19.43;3.83;;;6.70;99.90;;;;;;4982159;28;38558;-80
2022/02/07 03:38:59;;;;;;;19.53;2.97;;;6.70;99.90;;;;;;4965826;28;40503;-80
2022/02/07 03:41:25;;;;;;;13.37;2.77;;;6.70;99.90;;;;;;4981801;28;40637;-80
2022/02/07 03:43:52;;;;;;;17.77;2.40;;;6.70;99.90;;;;;;4995623;28;38723;-80
2022/02/07 03:46:18;;;;;;;15.43;2.53;;;6.70;99.90;;;;;;4984694;28;38277;-80
2022/02/07 03:48:45;;;;;;;20.10;2.50;;;6.70;99.90;;;;;;4975311;28;37988;-80
2022/02/07 03:51:11;;;;;;;22.60;2.53;;;6.70;99.90;;;;;;4992056;28;39209;-80
2022/02/07 03:53:37;;;;;;;15.50;2.43;;;6.80;99.90;;;;;;4979138;28;38122;-80
2022/02/07 03:56:05;;;;;;;16.00;2.03;;;6.80;99.90;;;;;;4981134;28;37150;-81
2022/02/07 03:58:31;;;;;;;16.80;2.67;;;6.90;99.90;;;;;;4980282;28;38408;-78
2022/02/07 04:00:58;;;;;;;20.40;3.20;;;6.90;99.90;;;;;;4979243;28;39964;-79
2022/02/07 04:03:30;;;;;;;19.37;3.07;;;6.90;99.90;;;;;;4974812;28;38350;-78
2022/02/07 04:06:00;;;;;;;20.23;2.90;;;6.90;99.90;;;;;;4977128;28;38210;-79
2022/02/07 04:08:35;;;;;;;22.93;3.27;;;6.90;99.90;;;;;;4976884;28;37284;-80
2022/02/07 04:13:33;;;;;;;21.57;3.30;;;6.90;99.90;;;;;;4979005;28;38427;-79
2022/02/07 04:16:02;;;;;;;21.85;2.78;;;6.80;99.90;;;;;;4980175;28;38099;-80
2022/02/07 04:18:35;;;;;;;23.03;2.90;;;6.80;99.90;;;;;;4980392;28;48723;-80
2022/02/07 04:21:02;;;;;;;16.73;2.53;;;6.80;99.90;;;;;;4977771;28;37679;-80
2022/02/07 04:23:28;;;;;;;23.10;2.80;;;6.70;99.90;;;;;;4981464;28;47213;-81
2022/02/07 04:25:54;;;;;;;23.40;3.03;;;6.70;99.90;;;;;;4983281;28;38106;-79
2022/02/07 04:28:22;;;;;;;20.20;2.80;;;6.70;99.90;;;;;;4980946;28;37711;-80
2022/02/07 04:30:48;;;;;;;17.77;2.93;;;6.60;99.90;;;;;;4980730;28;39524;-80
2022/02/07 04:33:14;;;;;;;17.17;2.63;;;6.70;99.90;;;;;;4980511;28;36043;-80
2022/02/07 04:35:40;;;;;;;19.33;2.80;;;6.80;99.90;;;;;;4974164;28;37704;-80
2022/02/07 04:38:07;;;;;;;22.00;4.20;;;6.80;99.90;;;;;;4978352;28;38269;-79
2022/02/07 04:40:33;;;;;;;22.03;3.50;;;6.80;99.90;;;;;;4957977;28;40445;-80
2022/02/07 04:42:59;;;;;;;20.47;2.83;;;6.80;99.90;;;;;;4962946;28;38294;-81
2022/02/07 04:48:14;;;;;;;25.10;3.83;;;6.80;99.90;;;;;;4983305;28;37723;-80
2022/02/07 04:55:50;;;;;;;18.13;2.90;;;6.90;99.90;;;;;;4982625;28;39104;-80
2022/02/07 05:01:41;;;;;;;22.90;3.27;;;6.90;99.90;;;;;;4953133;28;38691;-79
2022/02/07 05:04:10;;;;;;;25.57;3.87;;;7.00;99.90;;;;;;4974615;28;38917;-79
2022/02/07 05:14:52;;;;;;;24.83;3.80;;;6.90;99.90;;;;;;4976599;28;39571;-79
2022/02/07 05:17:20;;;;;;;17.90;3.03;;;7.00;99.90;;;;;;4977738;28;36672;-80
2022/02/07 05:19:48;;;;;;;22.23;3.93;;;7.00;99.90;;;;;;4971841;28;36711;-80
2022/02/07 05:22:15;;;;;;;23.83;3.97;;;7.00;99.90;;;;;;4969854;28;39431;-80
2022/02/07 05:24:41;;;;;;;28.70;4.50;;;7.00;99.90;;;;;;4965037;28;37716;-80
2022/02/07 05:27:07;;;;;;;25.20;5.00;;;6.90;99.90;;;;;;4979364;28;37182;-80
2022/02/07 05:29:34;;;;;;;26.37;3.67;;;6.90;99.90;;;;;;4959309;28;37663;-79
2022/02/07 05:32:02;;;;;;;26.57;4.03;;;6.90;99.90;;;;;;4977667;28;39320;-80
2022/02/07 05:34:28;;;;;;;20.57;3.17;;;7.00;99.90;;;;;;4961998;28;47247;-79
2022/02/07 05:36:57;;;;;;;27.80;4.60;;;6.90;99.90;;;;;;4963074;28;36885;-81
2022/02/07 05:39:26;;;;;;;27.93;4.13;;;6.90;99.90;;;;;;4975909;28;36864;-81
2022/02/07 05:41:52;;;;;;;17.20;3.17;;;6.90;99.90;;;;;;4980976;28;37783;-80
2022/02/07 05:44:18;;;;;;;21.90;3.63;;;6.90;99.90;;;;;;4975204;28;37653;-79
2022/02/07 05:46:44;;;;;;;22.07;3.30;;;6.90;99.90;;;;;;4976874;28;38143;-80
2022/02/07 05:49:11;;;;;;;22.37;2.90;;;6.90;99.90;;;;;;4975700;28;37251;-79
2022/02/07 05:51:37;;;;;;;26.30;3.87;;;7.00;99.90;;;;;;4974099;28;39390;-80
2022/02/07 05:54:03;;;;;;;25.00;3.63;;;6.90;99.90;;;;;;4973506;28;38255;-79
2022/02/07 05:56:29;;;;;;;31.47;3.87;;;6.90;99.90;;;;;;4986373;28;37362;-81
2022/02/07 05:58:56;;;;;;;34.90;4.73;;;6.90;99.90;;;;;;4976859;28;36852;-80
2022/02/07 06:01:22;;;;;;;21.03;3.67;;;7.00;99.90;;;;;;4979561;28;39540;-81
2022/02/07 06:03:48;;;;;;;27.50;3.30;;;7.00;99.90;;;;;;4981328;28;39927;-80
2022/02/07 06:06:14;;;;;;;25.33;3.03;;;6.90;99.90;;;;;;4977642;28;37931;-79
2022/02/07 06:08:40;;;;;;;18.47;3.83;;;6.90;99.90;;;;;;4981478;28;36053;-80
2022/02/07 06:11:07;;;;;;;19.87;3.37;;;6.90;99.90;;;;;;4979018;28;39406;-79
2022/02/07 06:13:35;;;;;;;20.53;3.57;;;6.90;99.90;;;;;;4969059;28;37314;-80
2022/02/07 06:16:02;;;;;;;23.63;3.70;;;6.90;99.90;;;;;;4975169;28;38836;-79
2022/02/07 06:18:29;;;;;;;23.13;3.13;;;6.90;99.90;;;;;;4977810;28;35501;-81
2022/02/07 06:21:01;;;;;;;28.53;3.97;;;6.90;99.90;;;;;;4996902;28;37634;-80
2022/02/07 06:23:28;;;;;;;21.83;3.77;;;6.90;99.90;;;;;;4974087;28;46421;-80
2022/02/07 06:25:55;;;;;;;22.80;3.30;;;6.90;99.90;;;;;;4983706;28;38223;-80
2022/02/07 06:28:21;;;;;;;24.50;3.90;;;7.00;99.90;;;;;;4980779;28;37204;-80
2022/02/07 06:30:47;;;;;;;24.83;5.10;;;7.10;99.90;;;;;;4986717;28;39305;-79
2022/02/07 06:33:13;;;;;;;20.30;3.50;;;7.10;99.90;;;;;;4978621;28;35438;-79
2022/02/07 06:35:39;;;;;;;26.53;3.40;;;7.10;99.90;;;;;;4980479;28;38245;-81
2022/02/07 06:38:06;;;;;;;24.20;3.80;;;7.10;99.90;;;;;;4976085;28;38980;-80
2022/02/07 06:40:32;;;;;;;24.23;4.37;;;7.10;99.90;;;;;;4980353;28;38623;-79
2022/02/07 06:42:58;;;;;;;35.70;5.00;;;7.00;99.90;;;;;;4981656;28;38911;-80
2022/02/07 06:45:25;;;;;;;26.83;3.93;;;7.10;99.90;;;;;;4978718;28;38129;-80
2022/02/07 06:47:51;;;;;;;23.00;3.40;;;7.10;99.90;;;;;;4979127;28;37507;-80
2022/02/07 06:50:17;;;;;;;24.27;3.73;;;7.10;99.90;;;;;;4980237;28;40638;-81
2022/02/07 06:52:44;;;;;;;26.80;3.47;;;7.10;99.90;;;;;;4978728;28;39803;-80
2022/02/07 06:55:10;;;;;;;26.20;4.10;;;7.10;99.90;;;;;;4981266;28;38954;-80
2022/02/07 06:57:36;;;;;;;30.73;3.73;;;7.10;99.90;;;;;;4976510;28;36982;-80
2022/02/07 07:00:07;;;;;;;23.97;3.73;;;7.10;99.90;;;;;;4979644;28;38352;-80
2022/02/07 07:02:34;;;;;;;24.83;5.00;;;7.20;99.90;;;;;;4992091;28;47097;-81
2022/02/07 07:05:07;;;;;;;25.87;4.67;;;7.20;99.90;;;;;;4983233;28;38139;-80
2022/02/07 07:07:33;;;;;;;32.07;4.47;;;7.20;99.90;;;;;;4978881;28;47277;-81
2022/02/07 07:10:00;;;;;;;25.60;3.90;;;7.20;99.90;;;;;;4981499;28;39688;-80
2022/02/07 07:12:27;;;;;;;22.17;3.83;;;7.20;99.90;;;;;;4981775;28;39008;-80
2022/02/07 07:15:08;;;;;;;19.33;4.33;;;7.20;99.90;;;;;;4979927;28;38367;-81
2022/02/07 07:17:35;;;;;;;16.27;3.07;;;7.20;99.90;;;;;;4980284;28;49154;-81
2022/02/07 07:20:05;;;;;;;15.67;2.70;;;7.10;99.90;;;;;;4980355;28;39617;-81
2022/02/07 07:22:32;;;;;;;23.50;2.80;;;6.90;99.90;;;;;;4979680;28;46516;-81
2022/02/07 07:24:59;;;;;;;20.97;2.53;;;6.80;99.90;;;;;;4977843;28;40480;-81
2022/02/07 07:27:30;;;;;;;22.40;3.60;;;6.60;99.90;;;;;;4979407;28;37194;-81
2022/02/07 07:29:56;;;;;;;26.13;3.70;;;6.60;99.90;;;;;;4979440;28;39368;-80
2022/02/07 07:32:26;;;;;;;17.20;2.97;;;6.70;99.90;;;;;;4973474;28;38325;-80
2022/02/07 07:34:52;;;;;;;21.73;3.53;;;6.70;99.90;;;;;;4979196;28;37691;-81
2022/02/07 07:37:18;;;;;;;25.00;3.63;;;6.80;99.90;;;;;;4984398;28;37172;-81
2022/02/07 07:39:44;;;;;;;26.17;4.27;;;6.80;99.90;;;;;;4979643;28;40265;-81
2022/02/07 07:42:10;;;;;;;22.77;3.70;;;6.90;99.90;;;;;;4976011;28;37813;-81
2022/02/07 07:44:38;;;;;;;25.43;3.57;;;7.00;99.90;;;;;;4978144;28;38542;-81
2022/02/07 07:47:11;;;;;;;29.97;3.77;;;7.00;99.90;;;;;;4972828;28;37819;-80
2022/02/07 07:49:51;;;;;;;21.37;3.57;;;7.00;99.90;;;;;;4980358;28;39255;-81
2022/02/07 07:52:29;;;;;;;22.10;3.30;;;7.10;99.90;;;;;;4977582;28;38342;-81
2022/02/07 08:03:14;;;;;;;26.93;4.63;;;7.10;99.90;;;;;;4975313;28;38880;-80
2022/02/07 08:08:34;;;;;;;31.33;3.83;;;7.00;99.90;;;;;;4978813;28;37118;-81
2022/02/07 08:11:04;;;;;;;25.43;4.30;;;6.90;99.90;;;;;;4977716;28;38994;-82
2022/02/07 08:13:32;;;;;;;17.97;3.13;;;6.80;99.90;;;;;;4975598;28;47482;-81
2022/02/07 08:15:58;;;;;;;18.43;2.70;;;6.80;99.90;;;;;;4977753;28;41518;-81
2022/02/07 08:18:24;;;;;;;21.33;3.63;;;6.80;99.90;;;;;;4977859;28;37134;-81
2022/02/07 08:20:50;;;;;;;24.37;3.73;;;6.70;99.90;;;;;;4977099;28;39167;-81
2022/02/07 08:23:16;;;;;;;17.17;2.50;;;6.70;99.90;;;;;;4977487;28;39145;-81
2022/02/07 08:25:43;;;;;;;20.83;3.10;;;6.70;99.90;;;;;;4978139;28;37305;-81
2022/02/07 08:28:09;;;;;;;17.27;3.10;;;6.70;99.90;;;;;;4976771;28;38187;-82
2022/02/07 08:30:37;;;;;;;20.63;3.00;;;6.70;99.90;;;;;;4980295;28;38658;-82
2022/02/07 08:33:03;;;;;;;21.40;3.30;;;6.70;99.90;;;;;;4979082;28;39265;-81
2022/02/07 08:35:31;;;;;;;23.77;2.77;;;6.80;99.90;;;;;;4975171;28;37484;-82
2022/02/07 08:37:58;;;;;;;19.27;3.07;;;6.70;99.90;;;;;;4995416;28;36533;-82
2022/02/07 08:40:25;;;;;;;25.20;3.67;;;6.80;99.90;;;;;;4998183;28;38845;-82
2022/02/07 08:42:51;;;;;;;24.60;3.47;;;6.90;99.90;;;;;;4979812;28;38322;-81
2022/02/07 08:45:19;;;;;;;26.20;3.37;;;6.90;99.90;;;;;;4980529;28;37288;-82
2022/02/07 08:47:45;;;;;;;25.23;3.23;;;7.00;99.90;;;;;;4993525;28;36579;-81
2022/02/07 08:50:12;;;;;;;25.40;3.30;;;7.00;99.90;;;;;;4998437;28;39540;-80
2022/02/07 08:52:47;;;;;;;22.53;2.90;;;7.00;99.90;;;;;;4980820;28;38741;-80
2022/02/07 08:55:22;;;;;;;21.93;3.37;;;7.00;99.90;;;;;;4977118;28;38520;-80
2022/02/07 08:57:53;;;;;;;19.10;2.93;;;7.00;99.90;;;;;;4995314;28;37204;-80
2022/02/07 09:00:34;;;;;;;18.30;3.20;;;7.10;99.90;;;;;;4993979;28;38870;-80
2022/02/07 09:05:54;;;;;;;22.40;3.47;;;7.20;99.90;;;;;;4984190;28;49017;-80
2022/02/07 09:08:26;;;;;;;17.60;2.90;;;7.20;99.90;;;;;;4998947;28;36941;-80
2022/02/07 09:10:54;;;;;;;27.58;3.45;;;7.20;99.90;;;;;;4995452;28;20529;-80
2022/02/07 09:13:26;;;;;;;14.67;2.47;;;7.20;99.90;;;;;;4978207;28;37790;-80
2022/02/07 09:16:04;;;;;;;21.05;3.28;;;7.20;99.90;;;;;;4997184;28;39318;-80
2022/02/07 09:18:30;;;;;;;17.93;2.80;;;7.20;99.90;;;;;;4989446;28;48476;-80
2022/02/07 09:20:58;;;;;;;24.40;3.17;;;7.20;99.90;;;;;;4986730;28;38819;-80
2022/02/07 09:23:26;;;;;;;13.57;2.23;;;7.20;99.90;;;;;;4992371;28;38978;-80
2022/02/07 09:25:52;;;;;;;19.17;3.87;;;7.20;99.90;;;;;;4999284;28;39294;-80
2022/02/07 09:28:19;;;;;;;22.40;3.27;;;7.10;99.90;;;;;;4975301;28;36179;-79
2022/02/07 09:30:46;;;;;;;24.13;3.07;;;7.10;99.90;;;;;;4972330;28;38929;-80
2022/02/07 09:33:12;;;;;;;14.73;2.53;;;7.10;99.90;;;;;;4993524;28;38317;-80
2022/02/07 09:35:38;;;;;;;20.73;2.80;;;7.10;99.90;;;;;;4990221;28;38557;-80
2022/02/07 09:38:04;;;;;;;21.53;3.43;;;7.20;99.90;;;;;;4981711;28;37097;-79
2022/02/07 09:40:30;;;;;;;22.10;2.53;;;7.20;99.90;;;;;;4980949;28;37920;-79
2022/02/07 09:43:00;;;;;;;19.23;2.97;;;7.40;99.90;;;;;;4980146;28;37444;-79
2022/02/07 09:45:37;;;;;;;19.20;3.47;;;7.50;99.90;;;;;;4974866;28;40509;-81
2022/02/07 09:48:06;;;;;;;17.10;3.00;;;7.50;99.90;;;;;;4977920;28;39838;-80
2022/02/07 09:50:33;;;;;;;21.77;4.03;;;7.50;99.90;;;;;;4978494;28;38921;-80
2022/02/07 09:52:59;;;;;;;21.97;3.00;;;7.50;99.90;;;;;;4979650;28;37849;-80
2022/02/07 09:55:27;;;;;;;22.23;3.50;;;7.60;99.90;;;;;;4978490;28;39455;-80
2022/02/07 09:57:54;;;;;;;21.57;2.83;;;7.70;99.90;;;;;;4977610;28;37105;-80
2022/02/07 10:00:27;;;;;;;22.50;3.00;;;7.80;99.90;;;;;;4977604;28;39554;-80
2022/02/07 10:03:25;;;;;;;15.70;3.10;;;7.70;99.90;;;;;;4977288;28;39112;-80
2022/02/07 10:16:25;;;;;;;23.20;4.30;;;7.80;99.90;;;;;;4983448;28;39835;-79
2022/02/07 10:44:37;;;;;;;26.87;4.33;;;8.20;99.90;;;;;;4981451;28;38681;-79
2022/02/07 10:47:14;;;;;;;19.50;2.40;;;8.10;99.90;;;;;;4992431;28;39986;-80
2022/02/07 10:50:00;;;;;;;13.37;2.40;;;8.00;99.90;;;;;;4975856;28;38547;-80
2022/02/07 10:52:28;;;;;;;21.97;2.90;;;8.10;99.90;;;;;;4997895;28;36066;-80
2022/02/07 10:54:54;;;;;;;14.60;2.70;;;8.20;99.90;;;;;;4976984;28;37837;-80
2022/02/07 10:57:22;;;;;;;19.47;2.73;;;8.40;99.90;;;;;;4981728;28;38807;-80
2022/02/07 10:59:49;;;;;;;16.27;2.20;;;8.40;99.90;;;;;;4996895;28;38166;-80
2022/02/07 11:05:06;;;;;;;12.87;2.60;;;8.50;99.90;;;;;;4979582;28;40399;-80
2022/02/07 11:07:33;;;;;;;;;;;8.60;99.90;;;;;;4972792;28;47324;-80
2022/02/07 11:10:41;;;;;;;13.13;2.20;;;8.40;99.90;;;;;;4976703;28;38675;-80
2022/02/07 11:13:26;;;;;;;12.55;2.60;;;8.40;99.90;;;;;;4977116;28;47296;-80
2022/02/07 11:16:04;;;;;;;20.50;1.80;;;8.50;99.90;;;;;;4975739;28;47688;-80
2022/02/07 11:21:39;;;;;;;14.33;1.83;;;9.00;99.90;;;;;;4975196;28;49131;-78
2022/02/07 11:24:51;;;;;;;8.40;2.07;;;9.20;99.90;;;;;;4981238;28;36696;-77
2022/02/07 11:27:30;;;;;;;14.97;2.40;;;9.10;99.90;;;;;;4981613;28;38588;-78
2022/02/07 11:29:58;;;;;;;9.83;1.67;;;9.20;99.90;;;;;;4983187;28;38859;-78
2022/02/07 11:32:42;;;;;;;16.17;2.20;;;9.10;99.90;;;;;;4979114;28;38105;-78
2022/02/07 11:35:22;;;;;;;16.57;2.80;;;9.10;99.90;;;;;;4993383;28;36409;-78
2022/02/07 11:38:01;;;;;;;14.03;1.97;;;9.10;99.90;;;;;;4978769;28;40741;-79
2022/02/07 11:40:42;;;;;;;13.07;1.70;;;9.00;99.90;;;;;;4998070;28;47106;-80
2022/02/07 11:43:13;;;;;;;17.20;2.13;;;8.70;99.90;;;;;;4978935;28;37314;-80
2022/02/07 11:45:57;;;;;;;14.23;2.57;;;8.80;99.90;;;;;;4979770;28;36919;-78
2022/02/07 11:48:26;;;;;;;19.70;3.17;;;8.80;99.90;;;;;;4979188;28;38486;-80
2022/02/07 11:50:55;;;;;;;11.67;2.30;;;8.70;99.90;;;;;;4977943;28;38857;-81
2022/02/07 11:53:26;;;;;;;12.83;2.40;;;8.60;99.90;;;;;;4978997;28;38843;-79
2022/02/07 11:56:08;;;;;;;10.97;2.03;;;8.60;99.90;;;;;;4978441;28;37968;-80
2022/02/07 11:58:59;;;;;;;11.90;1.93;;;8.50;99.90;;;;;;4978187;28;47701;-80
2022/02/07 12:01:50;;;;;;;12.17;1.73;;;8.50;99.90;;;;;;4975839;28;40837;-79
2022/02/07 12:04:33;;;;;;;19.10;2.10;;;8.60;99.90;;;;;;4976661;28;38135;-79
2022/02/07 12:07:08;;;;;;;11.43;1.70;;;8.70;99.90;;;;;;4979546;28;36234;-80
2022/02/07 12:09:36;;;;;;;21.97;2.47;;;8.80;99.90;;;;;;4984459;28;48722;-80
2022/02/07 12:12:03;;;;;;;11.93;1.93;;;8.80;99.90;;;;;;4977315;28;38664;-80
2022/02/07 12:14:34;;;;;;;15.20;2.07;;;8.70;99.90;;;;;;4979970;28;37958;-80
2022/02/07 12:17:01;;;;;;;14.07;1.77;;;8.70;99.90;;;;;;4975576;28;37796;-80
2022/02/07 12:19:37;;;;;;;12.23;1.70;;;8.70;99.90;;;;;;4981315;28;47539;-80
2022/02/07 12:22:18;;;;;;;10.70;1.67;;;8.60;99.90;;;;;;4997010;28;38650;-80
2022/02/07 12:24:56;;;;;;;16.60;1.67;;;8.60;99.90;;;;;;4980961;28;38868;-82
2022/02/07 12:27:24;;;;;;;8.37;1.60;;;8.50;99.90;;;;;;4980805;28;36101;-80
2022/02/07 12:30:05;;;;;;;13.57;2.40;;;8.30;99.90;;;;;;4978617;28;39054;-79
2022/02/07 12:32:32;;;;;;;13.40;1.97;;;8.20;99.90;;;;;;4975545;28;47318;-80
2022/02/07 12:34:59;;;;;;;11.13;1.50;;;8.20;99.90;;;;;;4980264;28;37579;-80
2022/02/07 12:37:25;;;;;;;11.37;1.63;;;8.30;99.90;;;;;;4978978;28;37244;-81
2022/02/07 12:39:51;;;;;;;11.13;1.97;;;8.40;99.90;;;;;;4981748;28;39723;-80
2022/02/07 12:42:19;;;;;;;12.30;1.70;;;8.40;99.90;;;;;;4982455;28;38919;-80
2022/02/07 12:44:46;;;;;;;19.07;2.43;;;8.40;99.90;;;;;;4981024;28;38204;-80
2022/02/07 12:47:14;;;;;;;10.60;1.90;;;8.30;99.90;;;;;;4976676;28;37121;-80
2022/02/07 12:49:47;;;;;;;15.37;2.40;;;8.20;99.90;;;;;;4981806;28;38615;-80
2022/02/07 12:52:13;;;;;;;9.07;2.75;;;8.10;99.90;;;;;;4979573;28;39108;-80
2022/02/07 12:54:39;;;;;;;15.07;2.40;;;8.00;99.90;;;;;;4964703;28;37819;-80
2022/02/07 12:57:05;;;;;;;17.17;1.80;;;8.00;99.90;;;;;;4980639;28;36031;-80
2022/02/07 12:59:32;;;;;;;11.73;2.20;;;8.30;99.90;;;;;;4981478;28;39403;-80
2022/02/07 13:01:59;;;;;;;12.97;2.30;;;8.20;99.90;;;;;;4977858;28;38730;-80
2022/02/07 13:04:25;;;;;;;8.77;1.80;;;8.30;99.90;;;;;;4974635;28;37208;-81
2022/02/07 13:07:01;;;;;;;18.43;2.77;;;8.40;99.90;;;;;;4995046;28;35974;-80
2022/02/07 13:09:34;;;;;;;9.67;1.57;;;8.40;99.90;;;;;;4975877;28;48631;-81
2022/02/07 13:14:31;;;;;;;15.33;2.03;;;8.00;99.90;;;;;;4967571;28;48087;-80
2022/02/07 13:16:58;;;;;;;14.23;1.80;;;8.00;99.90;;;;;;4967354;28;36618;-80
2022/02/07 13:19:27;;;;;;;14.03;2.20;;;8.00;99.90;;;;;;4992136;28;38850;-79
2022/02/07 13:21:54;;;;;;;11.93;1.67;;;8.10;99.90;;;;;;4977024;28;38999;-79
2022/02/07 13:24:30;;;;;;;11.77;1.90;;;8.30;99.90;;;;;;4971753;28;36884;-80
2022/02/07 13:26:58;;;;;;;16.57;2.47;;;8.30;99.90;;;;;;4975492;28;37421;-80
2022/02/07 13:29:34;;;;;;;15.80;2.33;;;8.40;99.90;;;;;;4977894;28;39292;-80
2022/02/07 13:32:04;;;;;;;19.23;2.80;;;8.40;99.90;;;;;;4978163;28;38733;-80
2022/02/07 13:34:36;;;;;;;14.57;2.43;;;8.40;99.90;;;;;;4993005;28;48148;-80
2022/02/07 13:37:16;;;;;;;13.13;1.60;;;8.40;99.90;;;;;;4977661;28;36366;-79
2022/02/07 13:40:08;;;;;;;10.77;1.93;;;8.40;99.90;;;;;;4992741;28;39345;-81
2022/02/07 13:42:42;;;;;;;12.40;1.80;;;8.40;99.90;;;;;;4990643;28;47552;-80
2022/02/07 13:45:25;;;;;;;16.80;2.33;;;8.30;99.90;;;;;;4995143;28;39663;-81
2022/02/07 13:47:54;;;;;;;17.23;2.13;;;8.20;99.90;;;;;;4995240;28;37464;-80
2022/02/07 13:50:24;;;;;;;12.83;2.03;;;8.10;99.90;;;;;;4980823;28;39067;-81
2022/02/07 13:52:53;;;;;;;12.23;2.20;;;8.10;99.90;;;;;;4983063;28;37937;-80
2022/02/07 13:55:41;;;;;;;16.37;2.30;;;8.10;99.90;;;;;;4984210;28;37280;-80
2022/02/07 13:58:13;;;;;;;15.80;2.10;;;8.00;99.90;;;;;;4994741;28;37858;-80
2022/02/07 14:00:48;;;;;;;19.90;2.65;;;8.00;99.90;;;;;;4983351;28;37985;-80
2022/02/07 14:03:19;;;;;;;24.13;3.83;;;8.00;99.90;;;;;;4992399;28;38642;-82
2022/02/07 14:05:53;;;;;;;8.77;2.10;;;8.00;99.90;;;;;;4981668;28;38576;-80
2022/02/07 14:08:37;;;;;;;20.50;2.13;;;7.90;99.90;;;;;;4996352;28;36196;-81
2022/02/07 14:11:06;;;;;;;11.50;2.40;;;8.00;99.90;;;;;;4980696;28;38120;-80
2022/02/07 14:13:33;;;;;;;14.37;2.30;;;8.00;99.90;;;;;;4979867;28;38178;-80
2022/02/07 14:15:59;;;;;;;18.27;2.50;;;8.10;99.90;;;;;;5002312;28;38751;-80
2022/02/07 14:18:26;;;;;;;12.90;1.60;;;8.20;99.90;;;;;;4979450;28;37405;-80
2022/02/07 14:20:54;;;;;;;11.27;2.90;;;8.10;99.90;;;;;;4983048;28;39189;-80
2022/02/07 14:23:20;;;;;;;13.77;1.73;;;8.00;99.90;;;;;;4983454;28;38980;-80
2022/02/07 14:25:51;;;;;;;14.30;2.00;;;8.00;99.90;;;;;;5001130;28;39924;-80
2022/02/07 14:28:18;;;;;;;12.23;1.90;;;8.00;99.90;;;;;;4987763;28;36233;-81
2022/02/07 14:30:44;;;;;;;12.07;1.67;;;8.00;99.90;;;;;;5004452;28;39044;-81
2022/02/07 14:33:10;;;;;;;11.50;1.53;;;7.90;99.90;;;;;;4986439;28;37650;-81
2022/02/07 14:35:36;;;;;;;16.73;1.90;;;7.80;99.90;;;;;;4983104;28;38432;-80
2022/02/07 14:38:06;;;;;;;7.83;1.47;;;7.80;99.90;;;;;;5004007;28;37413;-80
2022/02/07 14:40:37;;;;;;;8.43;2.63;;;7.90;99.90;;;;;;4965353;28;38805;-81
2022/02/07 14:43:05;;;;;;;11.20;1.57;;;7.90;99.90;;;;;;4991375;28;37825;-80
2022/02/07 14:45:41;;;;;;;17.13;1.67;;;7.80;99.90;;;;;;4965563;28;39324;-79
2022/02/07 14:48:07;;;;;;;8.20;1.27;;;7.70;99.90;;;;;;4978795;28;37137;-80
2022/02/07 14:50:34;;;;;;;8.27;1.90;;;7.70;99.90;;;;;;4966002;28;38987;-80
2022/02/07 14:53:01;;;;;;;14.47;1.93;;;7.70;99.90;;;;;;4981667;28;38880;-80
2022/02/07 14:55:28;;;;;;;12.43;1.43;;;7.70;99.90;;;;;;4960352;28;39214;-80
2022/02/07 14:57:55;;;;;;;12.07;1.70;;;7.60;99.90;;;;;;4971191;28;38833;-80
2022/02/07 15:00:25;;;;;;;11.67;1.80;;;7.60;99.90;;;;;;4959342;28;37690;-80
2022/02/07 15:02:51;;;;;;;7.93;1.73;;;7.60;99.90;;;;;;4976805;28;37263;-80
2022/02/07 15:05:19;;;;;;;16.50;2.20;;;7.70;99.90;;;;;;4966868;28;37770;-80
2022/02/07 15:07:45;;;;;;;10.47;1.33;;;7.70;99.90;;;;;;4969353;28;37380;-80
2022/02/07 15:10:12;;;;;;;10.63;2.00;;;7.60;99.90;;;;;;4986050;28;39643;-79
2022/02/07 15:12:38;;;;;;;9.47;1.40;;;7.40;99.90;;;;;;4965893;28;37831;-80
2022/02/07 15:15:05;;;;;;;10.03;1.47;;;7.30;99.90;;;;;;4982885;28;39147;-79
2022/02/07 15:17:31;;;;;;;7.70;1.30;;;7.20;99.90;;;;;;4966861;28;35804;-79
2022/02/07 15:19:58;;;;;;;13.20;1.77;;;7.10;99.90;;;;;;4964136;28;38840;-80
2022/02/07 15:22:28;;;;;;;10.83;1.77;;;7.00;99.90;;;;;;4979639;28;38945;-80
2022/02/07 15:24:57;;;;;;;12.20;2.23;;;7.00;99.90;;;;;;4987993;28;38800;-80
2022/02/07 15:27:25;;;;;;;10.83;1.77;;;6.90;99.90;;;;;;4980328;28;37222;-80
2022/02/07 15:29:56;;;;;;;14.40;2.67;;;7.00;99.90;;;;;;4967785;28;39274;-80
2022/02/07 15:32:24;;;;;;;7.60;1.50;;;7.00;99.90;;;;;;4964694;28;39182;-80